Time;durP1;ratioP1;P1;durP2;ratioP2;P2;SDS_P1;SDS_P2;PMS_P1;PMS_P2;Temp;Humidity;BMP_temperature;BMP_pressure;BME280_temperature;BME280_humidity;BME280_pressure;Samples;Min_cycle;Max_cycle;Signal;HPM_P1;HPM_P2
2022/03/12 00:00:48;;;;;;;;;;;-1.30;29.80;;;;;;5055291;28;20221;-80
2022/03/12 00:03:15;;;;;;;;;;;-1.30;29.90;;;;;;5055183;28;20018;-80
2022/03/12 00:05:53;;;;;;;;;;;-1.30;29.80;;;;;;5071325;28;20276;-74
2022/03/12 00:08:24;;;;;;;;;;;-1.30;29.90;;;;;;5071930;28;19927;-74
2022/03/12 00:10:52;;;;;;;;;;;-1.20;29.90;;;;;;5071291;28;19940;-75
2022/03/12 00:13:20;;;;;;;;;;;-1.30;29.90;;;;;;5054970;28;19920;-80
2022/03/12 00:15:47;;;;;;;;;;;-1.30;30.10;;;;;;5071225;28;20368;-80
2022/03/12 00:18:17;;;;;;;;;;;-1.40;30.00;;;;;;5073213;28;20004;-75
2022/03/12 00:20:47;;;;;;;;;;;-1.40;30.10;;;;;;5071751;28;19940;-81
2022/03/12 00:23:21;;;;;;;;;;;-1.40;30.80;;;;;;5071472;28;19964;-81
2022/03/12 00:25:48;;;;;;;;;;;-1.40;30.20;;;;;;5070764;28;20377;-81
2022/03/12 00:28:18;;;;;;;;;;;-1.50;30.20;;;;;;5071116;28;19989;-76
2022/03/12 00:30:50;;;;;;;;;;;-1.50;30.30;;;;;;5067114;28;20015;-75
2022/03/12 00:33:18;;;;;;;;;;;-1.50;30.40;;;;;;5035650;28;20281;-81
2022/03/12 00:36:03;;;;;;;;;;;-1.50;30.50;;;;;;5051229;28;19923;-74
2022/03/12 00:38:30;;;;;;;;;;;-1.50;30.50;;;;;;5051425;28;19927;-80
2022/03/12 00:40:56;;;;;;;;;;;-1.50;30.50;;;;;;5050180;28;19924;-75
2022/03/12 00:43:22;;;;;;;;;;;-1.50;30.70;;;;;;5034255;28;20092;-80
2022/03/12 00:45:49;;;;;;;;;;;-1.60;30.60;;;;;;5034192;28;19931;-80
2022/03/12 00:48:16;;;;;;;;;;;-1.60;30.60;;;;;;5051066;28;19917;-75
2022/03/12 00:50:42;;;;;;;;;;;-1.60;30.70;;;;;;5050920;28;19923;-75
2022/03/12 00:53:08;;;;;;;;;;;-1.70;30.80;;;;;;5050881;28;20007;-74
2022/03/12 00:55:34;;;;;;;;;;;-1.70;30.50;;;;;;5033619;28;20159;-81
2022/03/12 00:58:00;;;;;;;;;;;-1.70;30.90;;;;;;5046283;28;19927;-80
2022/03/12 01:00:26;;;;;;;;;;;-1.70;31.00;;;;;;5053988;28;19925;-81
2022/03/12 01:02:53;;;;;;;;;;;-1.60;31.00;;;;;;5053844;28;19917;-74
2022/03/12 01:05:22;;;;;;;;;;;-1.70;30.90;;;;;;5069943;28;19924;-74
2022/03/12 01:07:48;;;;;;;;;;;-1.70;31.00;;;;;;5053903;28;20459;-81
2022/03/12 01:10:14;;;;;;;;;;;-1.70;31.10;;;;;;5070091;28;19925;-75
2022/03/12 01:12:43;;;;;;;;;;;-1.70;30.70;;;;;;5070212;28;20015;-81
2022/03/12 01:15:11;;;;;;;;;;;-1.70;31.10;;;;;;5053763;28;19989;-80
2022/03/12 01:17:38;;;;;;;;;;;-1.80;31.00;;;;;;5053861;28;20204;-79
2022/03/12 01:20:06;;;;;;;;;;;-1.80;30.70;;;;;;5069782;28;19924;-80
2022/03/12 01:22:35;;;;;;;;;;;-1.80;31.20;;;;;;5070088;28;19920;-80
2022/03/12 01:25:21;;;;;;;;;;;-1.80;30.90;;;;;;5054288;28;19983;-80
2022/03/12 01:27:47;;;;;;;;;;;-1.80;31.30;;;;;;5070216;28;19921;-81
2022/03/12 01:30:13;;;;;;;;;;;-1.80;31.40;;;;;;5052985;28;19924;-81
2022/03/12 01:32:39;;;;;;;;;;;-1.90;31.00;;;;;;5071691;28;20365;-80
2022/03/12 01:35:06;;;;;;;;;;;-1.90;31.10;;;;;;5069530;28;20023;-81
2022/03/12 01:37:32;;;;;;;;;;;-1.90;31.50;;;;;;5071471;28;19920;-81
2022/03/12 01:39:58;;;;;;;;;;;-2.00;31.40;;;;;;5070247;28;19924;-81
2022/03/12 01:42:27;;;;;;;;;;;-1.90;31.60;;;;;;5069334;28;19928;-80
2022/03/12 01:44:54;;;;;;;;;;;-1.90;31.70;;;;;;5053926;28;19924;-74
2022/03/12 01:47:22;;;;;;;;;;;-2.00;31.60;;;;;;5052813;28;20356;-75
2022/03/12 01:49:49;;;;;;;;;;;-2.00;31.30;;;;;;5069598;28;19924;-81
2022/03/12 01:52:15;;;;;;;;;;;-2.00;31.80;;;;;;5069847;28;20389;-74
2022/03/12 01:54:42;;;;;;;;;;;-2.00;31.80;;;;;;5069770;28;19924;-74
2022/03/12 01:57:12;;;;;;;;;;;-2.00;31.80;;;;;;5069730;28;19916;-81
2022/03/12 01:59:38;;;;;;;;;;;-2.00;31.80;;;;;;5069896;28;19936;-81
2022/03/12 02:02:08;;;;;;;;;;;-2.00;31.90;;;;;;5052989;28;19920;-74
2022/03/12 02:04:37;;;;;;;;;;;-2.10;31.90;;;;;;5069626;28;20015;-75
2022/03/12 02:07:03;;;;;;;;;;;-2.10;32.00;;;;;;5052633;28;20365;-81
2022/03/12 02:09:29;;;;;;;;;;;-2.10;31.60;;;;;;5069421;28;20058;-75
2022/03/12 02:11:55;;;;;;;;;;;-2.10;31.60;;;;;;5069885;28;19970;-75
2022/03/12 02:14:26;;;;;;;;;;;-2.10;31.80;;;;;;5054895;28;19955;-75
2022/03/12 02:17:11;;;;;;;;;;;-2.10;32.20;;;;;;5073222;28;19925;-74
2022/03/12 02:19:39;;;;;;;;;;;-2.20;32.20;;;;;;5073571;28;19947;-74
2022/03/12 02:22:23;;;;;;;;;;;-2.20;32.30;;;;;;5073238;28;19928;-80
2022/03/12 02:24:49;;;;;;;;;;;-2.30;32.50;;;;;;5073443;28;20007;-75
2022/03/12 02:27:15;;;;;;;;;;;-2.20;32.60;;;;;;5073321;28;19923;-75
2022/03/12 02:29:42;;;;;;;;;;;-2.30;32.70;;;;;;5072135;28;19924;-75
2022/03/12 02:32:09;;;;;;;;;;;-2.30;32.80;;;;;;5053062;28;20291;-81
2022/03/12 02:34:41;;;;;;;;;;;-2.30;32.70;;;;;;5053221;28;19925;-80
2022/03/12 02:37:07;;;;;;;;;;;-2.40;32.70;;;;;;5053632;28;19921;-81
2022/03/12 02:39:37;;;;;;;;;;;-2.30;32.80;;;;;;5036550;28;19939;-75
2022/03/12 02:42:05;;;;;;;;;;;-2.40;32.30;;;;;;5036937;28;19947;-74
2022/03/12 02:44:31;;;;;;;;;;;-2.40;32.20;;;;;;5053411;28;19967;-80
2022/03/12 02:47:34;;;;;;;;;;;-2.40;32.80;;;;;;5054010;28;20378;-80
2022/03/12 02:50:04;;;;;;;;;;;-2.40;32.70;;;;;;5061951;28;19925;-80
2022/03/12 02:52:31;;;;;;;;;;;-2.50;32.80;;;;;;5056526;28;19921;-74
2022/03/12 02:54:59;;;;;;;;;;;-2.50;32.90;;;;;;5056511;28;19936;-80
2022/03/12 02:57:27;;;;;;;;;;;-2.50;33.10;;;;;;5072420;28;19916;-80
2022/03/12 02:59:54;;;;;;;;;;;-2.50;33.20;;;;;;5056760;28;20243;-81
2022/03/12 03:02:40;;;;;;;;;;;-2.60;33.10;;;;;;5072701;28;19921;-80
2022/03/12 03:05:41;;;;;;;;;;;-2.60;33.20;;;;;;5072370;28;19963;-80
2022/03/12 03:08:09;;;;;;;;;;;-2.60;33.20;;;;;;5072263;28;20003;-75
2022/03/12 03:10:55;;;;;;;;;;;-2.60;33.20;;;;;;5072269;28;20377;-80
2022/03/12 03:13:32;;;;;;;;;;;-2.60;33.20;;;;;;5049253;28;19936;-75
2022/03/12 03:16:21;;;;;;;;;;;-2.60;33.30;;;;;;5022259;28;19925;-80
2022/03/12 03:18:51;;;;;;;;;;;-2.60;33.40;;;;;;5036614;28;19924;-80
2022/03/12 03:21:19;;;;;;;;;;;-2.70;33.60;;;;;;5052013;28;19924;-75
2022/03/12 03:23:46;;;;;;;;;;;-2.70;33.70;;;;;;5069953;28;19921;-80
2022/03/12 03:26:14;;;;;;;;;;;-2.70;33.70;;;;;;5051716;28;19928;-81
2022/03/12 03:28:41;;;;;;;;;;;-2.70;33.70;;;;;;5052055;28;19921;-75
2022/03/12 03:31:07;;;;;;;;;;;-2.80;33.60;;;;;;5051538;28;20021;-80
2022/03/12 03:36:08;;;;;;;;;;;-2.80;34.00;;;;;;5053827;28;19923;-74
2022/03/12 03:38:40;;;;;;;;;;;-2.90;34.40;;;;;;5060663;28;19920;-80
2022/03/12 03:41:06;;;;;;;;;;;-3.00;34.50;;;;;;5073076;28;20288;-80
2022/03/12 03:43:32;;;;;;;;;;;-3.00;34.70;;;;;;5073363;28;19920;-80
2022/03/12 03:45:58;;;;;;;;;;;-3.20;34.90;;;;;;5049307;28;19929;-81
2022/03/12 03:48:25;;;;;;;;;;;-3.20;34.90;;;;;;5052379;28;20011;-74
2022/03/12 03:50:53;;;;;;;;;;;-3.30;35.00;;;;;;5052198;28;19927;-81
2022/03/12 03:53:38;;;;;;;;;;;-3.30;35.00;;;;;;5051596;28;19920;-80
2022/03/12 03:56:09;;;;;;;;;;;-3.40;35.00;;;;;;5051783;28;20293;-80
2022/03/12 03:58:36;;;;;;;;;;;-3.50;34.60;;;;;;5052813;28;19944;-81
2022/03/12 04:01:04;;;;;;;;;;;-3.40;35.10;;;;;;5034580;28;19925;-74
2022/03/12 04:03:37;;;;;;;;;;;-3.50;35.00;;;;;;5051597;28;19921;-80
2022/03/12 04:06:07;;;;;;;;;;;-3.50;35.00;;;;;;5051940;28;20348;-80
2022/03/12 04:08:36;;;;;;;;;;;-3.50;35.00;;;;;;5044475;28;19920;-74
2022/03/12 04:11:23;;;;;;;;;;;-3.50;35.00;;;;;;5034981;28;20444;-74
2022/03/12 04:13:51;;;;;;;;;;;-3.50;35.10;;;;;;5000567;28;19960;-81
2022/03/12 04:16:31;;;;;;;;;;;-3.60;35.10;;;;;;5068168;28;19924;-74
2022/03/12 04:19:07;;;;;;;;;;;-3.60;35.10;;;;;;5053113;28;19925;-74
2022/03/12 04:21:33;;;;;;;;;;;-3.70;35.00;;;;;;5060935;28;20285;-74
2022/03/12 04:23:59;;;;;;;;;;;-3.70;34.90;;;;;;5054717;28;20360;-81
2022/03/12 04:26:30;;;;;;;;;;;-3.60;35.50;;;;;;5054781;28;19916;-74
2022/03/12 04:28:59;;;;;;;;;;;-3.70;35.50;;;;;;5071521;28;20389;-81
2022/03/12 04:31:28;;;;;;;;;;;-3.70;35.40;;;;;;5052371;28;19924;-75
2022/03/12 04:34:01;;;;;;;;;;;-3.70;35.60;;;;;;5051344;28;19920;-75
2022/03/12 04:36:36;;;;;;;;;;;-3.60;35.60;;;;;;5033513;28;20382;-81
2022/03/12 04:39:13;;;;;;;;;;;-3.70;35.40;;;;;;5052050;28;20433;-74
2022/03/12 04:41:41;;;;;;;;;;;-3.70;35.40;;;;;;5034746;28;19924;-80
2022/03/12 04:44:09;;;;;;;;;;;-3.70;36.30;;;;;;5051240;28;20335;-75
2022/03/12 04:46:37;;;;;;;;;;;-3.80;35.70;;;;;;5040725;28;20373;-75
2022/03/12 04:49:07;;;;;;;;;;;-3.80;35.80;;;;;;5067295;28;20012;-75
2022/03/12 04:51:33;;;;;;;;;;;-3.80;35.90;;;;;;5050323;28;19925;-74
2022/03/12 04:53:59;;;;;;;;;;;-3.80;36.00;;;;;;5050910;28;20377;-74
2022/03/12 04:56:44;;;;;;;;;;;-3.80;36.00;;;;;;5051237;28;19940;-75
2022/03/12 04:59:12;;;;;;;;;;;-3.90;36.00;;;;;;5051439;28;20348;-80
2022/03/12 05:01:38;;;;;;;;;;;-3.90;36.20;;;;;;5050302;28;19928;-80
2022/03/12 05:04:04;;;;;;;;;;;-3.90;36.20;;;;;;5051592;28;19937;-80
2022/03/12 05:06:40;;;;;;;;;;;-3.90;36.20;;;;;;5051647;28;19925;-80
2022/03/12 05:09:08;;;;;;;;;;;-3.90;36.00;;;;;;5050887;28;20309;-81
2022/03/12 05:11:34;;;;;;;;;;;-3.90;36.00;;;;;;5051322;28;19917;-80
2022/03/12 05:14:10;;;;;;;;;;;-3.90;36.00;;;;;;5033605;28;20442;-80
2022/03/12 05:16:39;;;;;;;;;;;-4.00;36.10;;;;;;5071243;28;19931;-75
2022/03/12 05:19:06;;;;;;;;;;;-4.00;36.40;;;;;;5037165;28;19920;-80
2022/03/12 05:21:32;;;;;;;;;;;-4.00;36.40;;;;;;5081927;28;19963;-74
2022/03/12 05:24:02;;;;;;;;;;;-4.00;36.50;;;;;;5073267;28;20296;-80
2022/03/12 05:26:28;;;;;;;;;;;-4.00;36.60;;;;;;5073574;28;19961;-80
2022/03/12 05:28:55;;;;;;;;;;;-4.00;36.60;;;;;;5073709;28;20323;-76
2022/03/12 05:31:24;;;;;;;;;;;-4.00;36.60;;;;;;5072994;28;19924;-79
2022/03/12 05:33:55;;;;;;;;;;;-4.00;36.50;;;;;;5057921;28;19921;-80
2022/03/12 05:36:28;;;;;;;;;;;-4.00;36.70;;;;;;5090900;28;19976;-80
2022/03/12 05:38:54;;;;;;;;;;;-4.00;36.80;;;;;;5091636;28;19996;-77
2022/03/12 05:41:23;;;;;;;;;;;-4.10;36.90;;;;;;5073285;28;19916;-80
2022/03/12 05:44:18;;;;;;;;;;;-4.20;37.30;;;;;;5091427;28;19920;-74
2022/03/12 05:46:42;;;;;;;;;;;-4.30;37.40;;;;;;5089183;28;19925;-74
2022/03/12 05:49:11;;;;;;;;;;;-4.30;37.30;;;;;;5055734;28;19927;-74
2022/03/12 05:51:42;;;;;;;;;;;-4.40;37.50;;;;;;5073093;28;19924;-80
2022/03/12 05:54:15;;;;;;;;;;;-4.30;37.60;;;;;;5073182;28;19962;-75
2022/03/12 05:56:41;;;;;;;;;;;-4.20;37.40;;;;;;5073217;28;19916;-81
2022/03/12 05:59:08;;;;;;;;;;;-4.10;37.30;;;;;;5056785;28;20331;-75
2022/03/12 06:01:37;;;;;;;;;;;-4.10;36.60;;;;;;5072619;28;19963;-74
2022/03/12 06:04:04;;;;;;;;;;;-4.00;37.00;;;;;;5056300;28;20020;-74
2022/03/12 06:06:35;;;;;;;;;;;-3.90;37.00;;;;;;5072531;28;19931;-74
2022/03/12 06:09:21;;;;;;;;;;;-3.90;37.00;;;;;;5091090;28;19924;-80
2022/03/12 06:11:50;;;;;;;;;;;-3.80;36.90;;;;;;5055865;28;20486;-75
2022/03/12 06:14:16;;;;;;;;;;;-3.70;37.00;;;;;;5073315;28;20411;-80
2022/03/12 06:17:02;;;;;;;;;;;-3.70;37.00;;;;;;5090228;28;19954;-74
2022/03/12 06:19:30;;;;;;;;;;;-3.60;36.90;;;;;;5073062;28;19971;-74
2022/03/12 06:21:59;;;;;;;;;;;-3.50;37.10;;;;;;5057376;28;19921;-75
2022/03/12 06:24:52;;;;;;;;;;;-3.50;36.90;;;;;;5036674;28;19956;-80
2022/03/12 06:27:22;;;;;;;;;;;-3.50;37.40;;;;;;5051110;28;20373;-81
2022/03/12 06:29:51;;;;;;;;;;;-3.40;37.40;;;;;;5053767;28;19920;-74
2022/03/12 06:32:24;;;;;;;;;;;-3.40;37.20;;;;;;5052952;28;20031;-80
2022/03/12 06:34:50;;;;;;;;;;;-3.20;37.10;;;;;;5052667;28;19924;-81
2022/03/12 06:37:21;;;;;;;;;;;-3.10;37.20;;;;;;5035713;28;19921;-81
2022/03/12 06:39:55;;;;;;;;;;;-3.10;37.10;;;;;;5035737;28;19959;-80
2022/03/12 06:42:24;;;;;;;;;;;-3.00;37.10;;;;;;5052435;28;19921;-74
2022/03/12 06:44:53;;;;;;;;;;;-2.90;36.90;;;;;;5053349;28;19967;-75
2022/03/12 06:47:26;;;;;;;;;;;-2.80;36.80;;;;;;5069521;28;19916;-81
2022/03/12 06:49:55;;;;;;;;;;;-2.70;36.80;;;;;;5057176;28;19924;-80
2022/03/12 06:52:21;;;;;;;;;;;-2.60;36.70;;;;;;5055469;28;19999;-81
2022/03/12 06:54:47;;;;;;;;;;;-2.50;36.80;;;;;;5090691;28;19924;-75
2022/03/12 06:57:13;;;;;;;;;;;-2.50;36.90;;;;;;5055467;28;19924;-80
2022/03/12 06:59:41;;;;;;;;;;;-2.40;37.10;;;;;;5092349;28;19920;-74
2022/03/12 07:02:11;;;;;;;;;;;-2.30;37.10;;;;;;5058976;28;20379;-75
2022/03/12 07:04:54;;;;;;;;;;;-2.30;37.00;;;;;;5047106;28;19924;-81
2022/03/12 07:07:20;;;;;;;;;;;-2.20;37.30;;;;;;5093889;28;19920;-80
2022/03/12 07:09:46;;;;;;;;;;;-2.10;37.50;;;;;;5094223;28;19924;-80
2022/03/12 07:12:31;;;;;;;;;;;-2.00;37.40;;;;;;5075911;28;19927;-82
2022/03/12 07:15:03;;;;;;;;;;;-1.90;36.80;;;;;;5072143;28;19925;-74
2022/03/12 07:17:29;;;;;;;;;;;-1.80;37.50;;;;;;5072663;28;19917;-74
2022/03/12 07:19:55;;;;;;;;;;;-1.70;37.60;;;;;;5072730;28;19970;-81
2022/03/12 07:22:21;;;;;;;;;;;-1.60;37.80;;;;;;5071786;28;19957;-81
2022/03/12 07:24:47;;;;;;;;;;;-1.50;38.00;;;;;;5055251;28;20394;-81
2022/03/12 07:27:13;;;;;;;;;;;-1.30;37.60;;;;;;5072095;28;19920;-81
2022/03/12 07:29:39;;;;;;;;;;;-1.20;37.50;;;;;;5073421;28;19942;-75
2022/03/12 07:32:28;;;;;;;;;;;-1.10;37.20;;;;;;5055333;28;20395;-74
2022/03/12 07:34:54;;;;;;;;;;;-1.00;37.40;;;;;;5072491;28;19931;-74
2022/03/12 07:37:21;;;;;;;;;;;-0.80;36.90;;;;;;5071833;28;19927;-74
2022/03/12 07:39:48;;;;;;;;;;;-0.70;36.90;;;;;;5055657;28;20338;-81
2022/03/12 07:42:17;;;;;;;;;;;-0.50;36.80;;;;;;5071904;28;19920;-74
2022/03/12 07:44:42;;;;;;;;;;;-0.40;37.20;;;;;;5056296;28;19920;-74
2022/03/12 07:47:09;;;;;;;;;;;-0.30;37.40;;;;;;5072066;28;19920;-82
2022/03/12 07:49:43;;;;;;;;;;;-0.10;37.20;;;;;;5055362;28;19932;-75
2022/03/12 07:52:17;;;;;;;;;;;0.00;36.50;;;;;;5071776;28;20357;-81
2022/03/12 07:54:43;;;;;;;;;;;0.30;36.90;;;;;;5073258;28;19963;-81
2022/03/12 07:57:18;;;;;;;;;;;0.50;36.80;;;;;;5054992;28;20374;-82
2022/03/12 08:00:04;;;;;;;;;;;0.60;36.60;;;;;;5072315;28;19928;-75
2022/03/12 08:02:32;;;;;;;;;;;0.90;36.80;;;;;;5052064;28;19921;-80
2022/03/12 08:04:58;;;;;;;;;;;2.20;36.20;;;;;;5070510;28;19925;-80
2022/03/12 08:07:25;;;;;;;;;;;3.80;34.90;;;;;;5071417;28;19921;-75
2022/03/12 08:09:56;;;;;;;;;;;5.20;34.10;;;;;;5070852;28;19924;-75
2022/03/12 08:12:32;;;;;;;;;;;6.40;34.10;;;;;;5070223;28;20329;-76
2022/03/12 08:14:59;;;;;;;;;;;7.50;33.80;;;;;;5054668;28;20312;-76
2022/03/12 08:17:26;;;;;;;;;;;8.60;33.00;;;;;;5071300;28;19979;-76
2022/03/12 08:19:53;;;;;;;;;;;9.50;32.80;;;;;;5072458;28;19931;-79
2022/03/12 08:22:19;;;;;;;;;;;10.20;32.20;;;;;;5066938;28;19920;-76
2022/03/12 08:24:47;;;;;;;;;;;11.20;31.10;;;;;;5034202;28;19932;-77
2022/03/12 08:27:19;;;;;;;;;;;12.20;30.20;;;;;;5050468;28;19955;-79
2022/03/12 08:29:45;;;;;;;;;;;13.10;29.50;;;;;;5051948;28;19932;-76
2022/03/12 08:32:12;;;;;;;;;;;14.20;29.10;;;;;;5052364;28;20376;-76
2022/03/12 08:34:41;;;;;;;;;;;15.00;28.20;;;;;;5050719;28;19928;-76
2022/03/12 08:37:10;;;;;;;;;;;15.80;27.50;;;;;;5033660;28;20330;-80
2022/03/12 08:39:51;;;;;;;;;;;16.80;26.60;;;;;;5036124;28;20388;-79
2022/03/12 08:42:24;;;;;;;;;;;17.70;25.80;;;;;;5050265;28;20398;-79
2022/03/12 08:44:51;;;;;;;;;;;18.40;25.20;;;;;;5034681;28;20258;-76
2022/03/12 08:47:17;;;;;;;;;;;19.10;24.30;;;;;;5070406;28;20327;-76
2022/03/12 08:49:44;;;;;;;;;;;19.80;23.40;;;;;;5070544;28;19924;-81
2022/03/12 08:52:27;;;;;;;;;;;20.30;22.40;;;;;;5070573;28;19921;-82
2022/03/12 08:55:43;;;;;;;;;;;20.80;21.40;;;;;;5055337;28;19975;-82
2022/03/12 08:57:46;;;;;;;;;;;21.50;20.80;;;;;;5067098;28;19927;-76
2022/03/12 09:00:20;;;;;;;;;;;22.00;18.00;;;;;;5053534;28;20003;-76
2022/03/12 09:03:05;;;;;;;;;;;22.40;17.60;;;;;;5070169;28;19962;-77
2022/03/12 09:05:52;;;;;;;;;;;23.20;17.50;;;;;;5070205;28;20037;-76
2022/03/12 09:08:41;;;;;;;;;;;23.80;17.00;;;;;;5071839;28;19942;-76
2022/03/12 09:11:10;;;;;;;;;;;24.40;16.40;;;;;;5069730;28;19963;-83
2022/03/12 09:13:46;;;;;;;;;;;25.30;15.60;;;;;;5069995;28;19931;-76
2022/03/12 09:16:14;;;;;;;;;;;25.60;14.30;;;;;;5052690;28;19951;-82
2022/03/12 09:18:59;;;;;;;;;;;26.20;14.20;;;;;;5069925;28;19947;-76
2022/03/12 09:21:45;;;;;;;;;;;27.00;13.80;;;;;;5058924;28;19924;-83
2022/03/12 09:24:12;;;;;;;;;;;27.50;12.90;;;;;;5054678;28;20023;-76
2022/03/12 09:26:38;;;;;;;;;;;28.00;12.40;;;;;;5050603;28;19921;-76
2022/03/12 09:29:04;;;;;;;;;;;28.50;12.00;;;;;;5032883;28;20168;-76
2022/03/12 09:31:30;;;;;;;;;;;29.20;11.50;;;;;;5055854;28;19920;-82
2022/03/12 09:34:08;;;;;;;;;;;29.70;10.60;;;;;;5070001;28;19920;-76
2022/03/12 09:36:35;;;;;;;;;;;30.30;10.60;;;;;;5070333;28;20258;-76
2022/03/12 09:39:31;;;;;;;;;;;30.20;9.50;;;;;;5052833;28;19931;-76
2022/03/12 09:42:00;;;;;;;;;;;30.20;9.20;;;;;;5034717;28;19916;-77
2022/03/12 09:44:26;;;;;;;;;;;30.60;9.00;;;;;;5049838;28;19921;-82
2022/03/12 09:46:55;;;;;;;;;;;31.10;9.10;;;;;;5049096;28;20405;-77
2022/03/12 09:49:36;;;;;;;;;;;31.80;7.80;;;;;;5049310;28;19928;-82
2022/03/12 09:52:07;;;;;;;;;;;32.30;7.70;;;;;;5048712;28;19970;-76
2022/03/12 09:54:37;;;;;;;;;;;32.50;7.40;;;;;;5049268;28;19925;-78
2022/03/12 09:57:04;;;;;;;;;;;32.90;7.20;;;;;;5048669;28;20125;-82
2022/03/12 09:59:35;;;;;;;;;;;33.40;7.20;;;;;;5050936;28;19917;-76
2022/03/12 10:02:01;;;;;;;;;;;33.60;7.00;;;;;;5053160;28;19928;-83
2022/03/12 10:04:30;;;;;;;;;;;34.10;6.70;;;;;;5069301;28;20308;-77
2022/03/12 10:06:58;;;;;;;;;;;34.60;6.50;;;;;;5052543;28;20011;-83
2022/03/12 10:09:24;;;;;;;;;;;34.60;5.70;;;;;;5069423;28;19928;-83
2022/03/12 10:11:54;;;;;;;;;;;34.50;5.80;;;;;;5051682;28;19923;-83
2022/03/12 10:14:20;;;;;;;;;;;34.50;5.50;;;;;;5054772;28;19924;-77
2022/03/12 10:16:46;;;;;;;;;;;34.90;5.40;;;;;;5072375;28;20167;-77
2022/03/12 10:19:12;;;;;;;;;;;34.60;5.30;;;;;;5055980;28;20002;-83
2022/03/12 10:21:42;;;;;;;;;;;33.60;5.20;;;;;;5068284;28;20000;-83
2022/03/12 10:24:28;;;;;;;;;;;32.80;5.30;;;;;;5081474;28;19924;-77
2022/03/12 10:26:58;;;;;;;;;;;32.90;5.40;;;;;;5070277;28;19920;-76
2022/03/12 10:29:33;;;;;;;;;;;32.50;5.70;;;;;;5088698;28;19927;-77
2022/03/12 10:32:20;;;;;;;;;;;31.70;5.80;;;;;;5072562;28;19920;-77
2022/03/12 10:34:52;;;;;;;;;;;31.30;6.00;;;;;;5073316;28;19924;-76
2022/03/12 10:37:40;;;;;;;;;;;31.90;4.90;;;;;;5076010;28;20402;-83
2022/03/12 10:40:25;;;;;;;;;;;31.80;4.90;;;;;;5075501;28;19966;-83
2022/03/12 10:43:02;;;;;;;;;;;32.80;4.60;;;;;;5075947;28;19924;-83
2022/03/12 10:45:52;;;;;;;;;;;32.40;4.70;;;;;;5091030;28;20001;-86
2022/03/12 10:48:23;;;;;;;;;;;32.70;4.40;;;;;;5094037;28;19920;-84
2022/03/12 10:50:50;;;;;;;;;;;33.40;3.90;;;;;;5075446;28;19920;-76
2022/03/12 10:53:17;;;;;;;;;;;33.20;3.90;;;;;;5076440;28;19920;-76
2022/03/12 10:55:58;;;;;;;;;;;33.80;3.60;;;;;;5058847;28;19920;-85
2022/03/12 10:58:27;;;;;;;;;;;32.90;3.00;;;;;;5055911;28;19970;-83
2022/03/12 11:00:59;;;;;;;;;;;31.80;3.60;;;;;;5072659;28;19920;-76
2022/03/12 11:03:47;;;;;;;;;;;33.00;4.10;;;;;;5055967;28;19932;-83
2022/03/12 11:06:21;;;;;;;;;;;33.30;4.20;;;;;;5038780;28;19921;-85
2022/03/12 11:08:56;;;;;;;;;;;32.00;4.50;;;;;;5055590;28;19924;-77
2022/03/12 11:11:24;;;;;;;;;;;31.40;4.00;;;;;;5055670;28;19980;-76
2022/03/12 11:13:51;;;;;;;;;;;32.30;3.80;;;;;;5038559;28;20425;-83
2022/03/12 11:16:36;;;;;;;;;;;32.70;3.40;;;;;;5054489;28;20328;-83
2022/03/12 11:19:10;;;;;;;;;;;32.70;3.90;;;;;;5073291;28;20254;-82
2022/03/12 11:21:40;;;;;;;;;;;33.20;4.10;;;;;;5051052;28;19924;-83
2022/03/12 11:24:15;;;;;;;;;;;33.50;3.80;;;;;;5052866;28;20338;-83
2022/03/12 11:27:05;;;;;;;;;;;33.00;4.00;;;;;;5053223;28;19917;-82
2022/03/12 11:29:31;;;;;;;;;;;32.90;3.80;;;;;;5053650;28;19928;-77
2022/03/12 11:32:18;;;;;;;;;;;33.60;3.50;;;;;;5059311;28;19927;-83
2022/03/12 11:35:02;;;;;;;;;;;33.80;3.70;;;;;;5068239;28;19925;-76
2022/03/12 11:37:36;;;;;;;;;;;34.70;3.40;;;;;;5037295;28;20325;-82
2022/03/12 11:40:09;;;;;;;;;;;35.40;3.40;;;;;;5053640;28;19924;-76
2022/03/12 11:42:36;;;;;;;;;;;36.40;3.30;;;;;;5071557;28;19989;-76
2022/03/12 11:45:14;;;;;;;;;;;37.10;3.30;;;;;;5070021;28;19921;-83
2022/03/12 11:48:03;;;;;;;;;;;37.30;3.20;;;;;;5040381;28;19917;-82
2022/03/12 11:50:35;;;;;;;;;;;38.10;3.00;;;;;;5072239;28;20011;-83
2022/03/12 11:53:02;;;;;;;;;;;38.20;3.10;;;;;;5071165;28;19951;-84
2022/03/12 11:55:31;;;;;;;;;;;38.70;2.90;;;;;;5070549;28;19924;-84
2022/03/12 11:57:59;;;;;;;;;;;39.10;3.10;;;;;;5054533;28;19927;-76
2022/03/12 12:00:46;;;;;;;;;;;39.20;3.00;;;;;;5071518;28;19932;-84
2022/03/12 12:03:14;;;;;;;;;;;38.50;2.80;;;;;;5070776;28;19947;-78
2022/03/12 12:05:43;;;;;;;;;;;38.60;2.90;;;;;;5054505;28;19924;-84
2022/03/12 12:08:21;;;;;;;;;;;38.70;2.80;;;;;;5070823;28;19921;-84
2022/03/12 12:10:54;;;;;;;;;;;37.20;3.20;;;;;;5069567;28;19924;-82
2022/03/12 12:13:20;;;;;;;;;;;37.50;3.00;;;;;;5070522;28;19942;-76
2022/03/12 12:15:46;;;;;;;;;;;38.20;3.10;;;;;;5069888;28;19924;-83
2022/03/12 12:18:13;;;;;;;;;;;38.90;2.80;;;;;;5052923;28;20313;-77
2022/03/12 12:20:41;;;;;;;;;;;39.40;2.40;;;;;;5054661;28;20006;-77
2022/03/12 12:23:14;;;;;;;;;;;39.90;2.50;;;;;;5070191;28;19920;-83
2022/03/12 12:25:43;;;;;;;;;;;40.70;2.40;;;;;;5069288;28;19924;-83
2022/03/12 12:28:31;;;;;;;;;;;40.70;2.60;;;;;;5070288;28;19924;-83
2022/03/12 12:30:59;;;;;;;;;;;41.10;2.50;;;;;;5069829;28;19928;-77
2022/03/12 12:33:27;;;;;;;;;;;41.10;2.50;;;;;;5050284;28;20243;-82
2022/03/12 12:36:19;;;;;;;;;;;41.30;2.30;;;;;;5049782;28;19950;-83
2022/03/12 12:39:03;;;;;;;;;;;41.60;2.20;;;;;;5055256;28;19924;-81
2022/03/12 12:42:06;;;;;;;;;;;42.10;2.20;;;;;;5063106;28;19923;-83
2022/03/12 12:45:17;;;;;;;;;;;42.30;2.20;;;;;;5071041;28;19925;-76
2022/03/12 12:47:43;;;;;;;;;;;42.50;1.80;;;;;;5071757;28;19927;-83
2022/03/12 12:50:30;;;;;;;;;;;42.80;1.50;;;;;;5053893;28;20015;-83
2022/03/12 12:53:17;;;;;;;;;;;43.10;2.10;;;;;;5050663;28;19952;-76
2022/03/12 12:55:51;;;;;;;;;;;43.50;2.00;;;;;;5049797;28;20015;-84
2022/03/12 12:58:17;;;;;;;;;;;43.70;1.60;;;;;;5049671;28;19967;-83
2022/03/12 13:00:45;;;;;;;;;;;43.90;1.80;;;;;;5033267;28;19928;-83
2022/03/12 13:03:14;;;;;;;;;;;43.70;1.30;;;;;;5066135;28;20385;-83
2022/03/12 13:05:59;;;;;;;;;;;43.60;1.60;;;;;;5070317;28;19929;-83
2022/03/12 13:08:44;;;;;;;;;;;42.70;1.00;;;;;;5070087;28;19978;-77
2022/03/12 13:11:32;;;;;;;;;;;42.50;1.30;;;;;;5069728;28;19920;-82
2022/03/12 13:13:59;;;;;;;;;;;41.90;1.00;;;;;;5069911;28;20031;-82
2022/03/12 13:16:55;;;;;;;;;;;41.80;1.20;;;;;;5064665;28;19924;-76
2022/03/12 13:19:39;;;;;;;;;;;42.30;1.30;;;;;;5051307;28;20019;-83
2022/03/12 13:22:24;;;;;;;;;;;43.00;1.40;;;;;;5061690;28;19932;-83
2022/03/12 13:25:22;;;;;;;;;;;43.20;1.30;;;;;;5049385;28;19964;-83
2022/03/12 13:28:18;;;;;;;;;;;43.50;1.10;;;;;;5049489;28;20374;-83
2022/03/12 13:30:44;;;;;;;;;;;44.10;1.30;;;;;;5053771;28;19924;-82
2022/03/12 13:33:12;;;;;;;;;;;43.90;1.00;;;;;;5052763;28;19920;-82
2022/03/12 13:35:42;;;;;;;;;;;43.60;1.40;;;;;;5069596;28;19928;-83
2022/03/12 13:38:12;;;;;;;;;;;43.20;1.30;;;;;;5070337;28;19921;-77
2022/03/12 13:40:38;;;;;;;;;;;42.80;1.10;;;;;;5068770;28;19939;-84
2022/03/12 13:43:17;;;;;;;;;;;42.70;1.30;;;;;;5068998;28;20007;-83
2022/03/12 13:46:01;;;;;;;;;;;42.10;1.30;;;;;;5063866;28;19924;-77
2022/03/12 13:48:34;;;;;;;;;;;42.10;1.00;;;;;;5067642;28;19931;-76
2022/03/12 13:51:00;;;;;;;;;;;41.80;1.00;;;;;;5070378;28;20300;-77
2022/03/12 13:53:44;;;;;;;;;;;41.80;1.10;;;;;;5053346;28;19924;-83
2022/03/12 13:56:17;;;;;;;;;;;41.80;1.10;;;;;;5069227;28;19921;-76
2022/03/12 13:58:48;;;;;;;;;;;42.30;1.30;;;;;;5069237;28;19924;-77
2022/03/12 14:01:35;;;;;;;;;;;42.90;1.00;;;;;;5068610;28;19921;-83
2022/03/12 14:04:08;;;;;;;;;;;42.80;1.10;;;;;;5049351;28;19924;-76
2022/03/12 14:06:55;;;;;;;;;;;42.10;1.10;;;;;;5048869;28;20395;-77
2022/03/12 14:09:23;;;;;;;;;;;41.70;1.00;;;;;;5029338;28;19925;-84
2022/03/12 14:11:51;;;;;;;;;;;40.80;1.10;;;;;;5053563;28;20324;-77
2022/03/12 14:14:37;;;;;;;;;;;40.00;1.40;;;;;;5055379;28;19928;-76
2022/03/12 14:17:05;;;;;;;;;;;39.90;1.10;;;;;;5083531;28;19920;-83
2022/03/12 14:20:10;;;;;;;;;;;40.50;1.30;;;;;;5076323;28;19924;-76
2022/03/12 14:22:42;;;;;;;;;;;40.70;1.10;;;;;;5055888;28;19927;-82
2022/03/12 14:25:09;;;;;;;;;;;40.80;1.10;;;;;;5072199;28;19931;-82
2022/03/12 14:27:36;;;;;;;;;;;40.60;1.30;;;;;;5056374;28;19920;-83
2022/03/12 14:30:08;;;;;;;;;;;40.60;1.20;;;;;;5056471;28;19927;-82
2022/03/12 14:32:34;;;;;;;;;;;40.60;1.40;;;;;;5074745;28;19924;-78
2022/03/12 14:35:02;;;;;;;;;;;40.60;1.40;;;;;;5039882;28;20485;-76
2022/03/12 14:37:28;;;;;;;;;;;40.50;1.20;;;;;;5055954;28;19921;-82
2022/03/12 14:40:00;;;;;;;;;;;40.40;1.40;;;;;;5056062;28;19925;-76
2022/03/12 14:42:26;;;;;;;;;;;40.80;1.20;;;;;;5056044;28;19920;-76
2022/03/12 14:45:27;;;;;;;;;;;40.60;1.20;;;;;;5092391;28;19924;-76
2022/03/12 14:47:53;;;;;;;;;;;40.30;1.30;;;;;;5075719;28;19916;-82
2022/03/12 14:50:20;;;;;;;;;;;40.00;1.60;;;;;;5093883;28;19931;-76
2022/03/12 14:52:52;;;;;;;;;;;39.40;1.30;;;;;;5076049;28;20364;-83